Terminal Aerodrome Forecast
Issued by NWS

Home | Current Version | Previous Version | Text Only | Print | Product List | Glossary On
Versions: 1 2 3 4 5 6 7 8 9 10 11 12 13 14 15
000
FTUS43 KMPX 210500
TAFAXN
TAF
KAXN 210539Z 2106/2206 17010KT 4SM BR OVC004
     FM211700 16010KT 6SM BR OVC007
     FM212000 15014KT 6SM BR OVC012
     FM220300 14014KT 5SM -RA BR OVC008=

USA.gov is the U.S. government's official web portal to all federal, state and local government web resources and services.